Time;durP1;ratioP1;P1;durP2;ratioP2;P2;SDS_P1;SDS_P2;PMS_P1;PMS_P2;Temp;Humidity;BMP_temperature;BMP_pressure;BME280_temperature;BME280_humidity;BME280_pressure;Samples;Min_cycle;Max_cycle;Signal;HPM_P1;HPM_P2
2021/09/01 00:01:14;;;;;;;3.97;2.33;;;18.90;99.90;;;;;;5041322;28;20231;-75
2021/09/01 00:03:41;;;;;;;9.02;3.33;;;18.80;99.90;;;;;;5049829;28;20209;-76
2021/09/01 00:06:08;;;;;;;5.22;2.20;;;18.80;99.90;;;;;;5044503;28;20548;-76
2021/09/01 00:08:35;;;;;;;2.95;2.58;;;18.90;99.90;;;;;;5032393;28;20215;-75
2021/09/01 00:11:03;;;;;;;3.10;2.78;;;18.90;99.90;;;;;;5050288;28;20476;-75
2021/09/01 00:13:30;;;;;;;3.33;2.20;;;18.80;99.90;;;;;;5049909;28;20191;-76
2021/09/01 00:15:57;;;;;;;3.85;2.63;;;18.80;99.90;;;;;;5040876;28;20203;-75
2021/09/01 00:18:23;;;;;;;6.13;2.38;;;18.80;99.90;;;;;;5039769;28;20264;-76
2021/09/01 00:20:50;;;;;;;3.80;2.47;;;18.80;99.90;;;;;;5037786;28;20507;-76
2021/09/01 00:23:17;;;;;;;3.17;2.47;;;18.80;99.90;;;;;;5044658;28;20568;-75
2021/09/01 00:25:45;;;;;;;5.57;3.20;;;18.80;99.90;;;;;;5034647;28;20200;-75
2021/09/01 00:28:13;;;;;;;3.38;2.55;;;18.80;99.90;;;;;;5036123;28;20214;-76
2021/09/01 00:30:39;;;;;;;3.78;2.60;;;18.80;99.90;;;;;;5049476;28;20195;-76
2021/09/01 00:33:06;;;;;;;3.28;2.35;;;18.80;99.90;;;;;;5047636;28;20199;-76
2021/09/01 00:35:33;;;;;;;4.05;2.60;;;18.80;99.90;;;;;;5042208;28;20219;-76
2021/09/01 00:37:59;;;;;;;3.47;1.95;;;18.80;99.90;;;;;;5051184;28;20200;-76
2021/09/01 00:40:28;;;;;;;3.45;2.70;;;18.80;99.90;;;;;;5050381;28;20223;-75
2021/09/01 00:42:55;;;;;;;3.92;2.10;;;18.80;99.90;;;;;;5038482;28;20196;-75
2021/09/01 00:45:23;;;;;;;2.58;2.38;;;18.70;99.90;;;;;;5040436;28;20707;-76
2021/09/01 00:47:50;;;;;;;4.00;2.78;;;18.70;99.90;;;;;;5034459;28;20546;-75
2021/09/01 00:50:17;;;;;;;3.15;2.28;;;18.70;99.90;;;;;;5045138;28;20269;-76
2021/09/01 00:52:44;;;;;;;4.65;2.45;;;18.70;99.90;;;;;;5036685;28;20922;-75
2021/09/01 00:55:11;;;;;;;2.90;2.60;;;18.80;99.90;;;;;;5044920;28;20195;-76
2021/09/01 00:57:40;;;;;;;5.70;2.70;;;18.70;99.90;;;;;;5034890;28;20204;-76
2021/09/01 01:00:09;;;;;;;4.75;2.45;;;18.70;99.90;;;;;;5042814;28;20320;-75
2021/09/01 01:02:38;;;;;;;3.85;2.33;;;18.70;99.90;;;;;;5032784;28;20195;-76
2021/09/01 01:05:06;;;;;;;4.30;2.45;;;18.70;99.90;;;;;;5034069;28;20543;-76
2021/09/01 01:07:33;;;;;;;5.65;2.35;;;18.70;99.90;;;;;;5046315;28;20202;-75
2021/09/01 01:09:59;;;;;;;3.35;2.40;;;18.70;99.90;;;;;;5049071;28;20273;-76
2021/09/01 01:12:26;;;;;;;3.17;2.38;;;18.70;99.90;;;;;;5047488;28;20188;-76
2021/09/01 01:14:53;;;;;;;3.60;2.53;;;18.70;99.90;;;;;;5031226;28;20933;-75
2021/09/01 01:17:22;;;;;;;4.47;2.63;;;18.60;99.90;;;;;;5044777;28;20199;-75
2021/09/01 01:19:52;;;;;;;2.92;2.40;;;18.60;99.90;;;;;;5043493;28;20215;-76
2021/09/01 01:22:21;;;;;;;3.10;2.17;;;18.60;99.90;;;;;;5036821;28;20197;-76
2021/09/01 01:24:54;;;;;;;6.95;2.75;;;18.60;99.90;;;;;;5040038;28;20199;-75
2021/09/01 01:27:24;;;;;;;2.95;2.65;;;18.60;99.90;;;;;;5035424;28;20192;-75
2021/09/01 01:29:52;;;;;;;6.55;2.53;;;18.60;99.90;;;;;;5039544;28;20602;-75
2021/09/01 01:32:18;;;;;;;4.10;2.40;;;18.60;99.90;;;;;;5046864;28;20241;-75
2021/09/01 01:34:45;;;;;;;3.97;2.75;;;18.60;99.90;;;;;;5050569;28;20203;-75
2021/09/01 01:37:12;;;;;;;3.30;2.50;;;18.60;99.90;;;;;;5046610;28;20250;-75
2021/09/01 01:39:39;;;;;;;3.65;2.47;;;18.50;99.90;;;;;;5045517;28;20200;-75
2021/09/01 01:42:06;;;;;;;8.10;2.88;;;18.60;99.90;;;;;;5045021;28;20219;-77
2021/09/01 01:44:34;;;;;;;3.75;3.05;;;18.60;99.90;;;;;;5045627;28;20603;-76
2021/09/01 01:47:03;;;;;;;3.35;2.20;;;18.60;99.90;;;;;;5031177;28;20210;-76
2021/09/01 01:49:29;;;;;;;4.50;2.70;;;18.50;99.90;;;;;;5031804;28;20232;-76
2021/09/01 01:51:56;;;;;;;4.50;2.50;;;18.50;99.90;;;;;;5046150;28;20357;-75
2021/09/01 01:54:23;;;;;;;2.80;2.50;;;18.50;99.90;;;;;;5042581;28;20254;-76
2021/09/01 01:56:49;;;;;;;2.63;2.42;;;18.50;99.90;;;;;;5047884;28;20195;-75
2021/09/01 01:59:16;;;;;;;2.95;2.40;;;18.50;99.90;;;;;;5039111;28;20254;-76
2021/09/01 02:01:44;;;;;;;3.60;2.90;;;18.50;99.90;;;;;;5032814;28;20254;-76
2021/09/01 02:04:11;;;;;;;3.17;2.22;;;18.50;99.90;;;;;;5034606;28;20229;-76
2021/09/01 02:06:37;;;;;;;3.35;2.72;;;18.50;99.90;;;;;;5036327;28;20685;-77
2021/09/01 02:09:04;;;;;;;4.65;2.58;;;18.50;99.90;;;;;;5033015;28;20612;-76
2021/09/01 02:11:31;;;;;;;2.50;2.30;;;18.50;99.90;;;;;;5052128;28;20196;-77
2021/09/01 02:13:58;;;;;;;3.03;2.20;;;18.50;99.90;;;;;;5048502;28;20199;-76
2021/09/01 02:16:25;;;;;;;2.85;1.90;;;18.50;99.90;;;;;;5036737;28;20207;-77
2021/09/01 02:18:53;;;;;;;4.05;3.10;;;18.50;99.90;;;;;;5039296;28;20196;-76
2021/09/01 02:21:19;;;;;;;5.50;3.58;;;18.40;99.90;;;;;;5048397;28;20223;-76
2021/09/01 02:23:46;;;;;;;3.90;2.95;;;18.40;99.90;;;;;;5047691;28;20616;-76
2021/09/01 02:26:13;;;;;;;2.55;2.35;;;18.50;99.90;;;;;;5031115;28;20258;-76
2021/09/01 02:28:39;;;;;;;6.28;3.13;;;18.50;99.90;;;;;;5043192;28;20196;-77
2021/09/01 02:31:06;;;;;;;6.05;4.15;;;18.40;99.90;;;;;;5030005;28;20200;-77
2021/09/01 02:33:33;;;;;;;5.10;2.40;;;18.40;99.90;;;;;;5041635;28;20200;-76
2021/09/01 02:36:01;;;;;;;2.78;2.45;;;18.40;99.90;;;;;;5040766;28;20195;-76
2021/09/01 02:38:28;;;;;;;3.70;2.90;;;18.40;99.90;;;;;;5031379;28;20211;-78
2021/09/01 02:40:54;;;;;;;3.63;3.10;;;18.40;99.90;;;;;;5044698;28;20427;-76
2021/09/01 02:43:21;;;;;;;2.83;2.33;;;18.40;99.90;;;;;;5047765;28;20595;-76
2021/09/01 02:45:48;;;;;;;5.63;2.53;;;18.40;99.90;;;;;;5040645;28;20234;-76
2021/09/01 02:48:15;;;;;;;3.90;2.60;;;18.40;99.90;;;;;;5036543;28;20203;-75
2021/09/01 02:50:42;;;;;;;3.22;2.72;;;18.40;99.90;;;;;;5033892;28;20542;-75
2021/09/01 02:53:10;;;;;;;3.30;2.55;;;18.40;99.90;;;;;;5048619;28;20245;-74
2021/09/01 02:55:37;;;;;;;3.10;2.70;;;18.40;99.90;;;;;;5031367;28;20242;-76
2021/09/01 02:58:04;;;;;;;8.77;3.00;;;18.40;99.90;;;;;;5031269;28;20200;-76
2021/09/01 03:00:31;;;;;;;6.55;3.50;;;18.40;99.90;;;;;;5046272;28;20199;-76
2021/09/01 03:02:58;;;;;;;5.05;3.67;;;18.40;99.90;;;;;;5042308;28;20332;-75
2021/09/01 03:05:24;;;;;;;4.07;3.00;;;18.30;99.90;;;;;;5049702;28;20195;-75
2021/09/01 03:07:51;;;;;;;5.20;3.25;;;18.40;99.90;;;;;;5045010;28;20237;-76
2021/09/01 03:10:19;;;;;;;6.47;3.63;;;18.30;99.90;;;;;;5033526;28;20215;-75
2021/09/01 03:12:46;;;;;;;6.78;3.30;;;18.30;99.90;;;;;;5050642;28;20191;-76
2021/09/01 03:15:13;;;;;;;2.95;2.47;;;18.30;99.90;;;;;;5048064;28;20188;-76
2021/09/01 03:17:40;;;;;;;3.50;2.80;;;18.30;99.90;;;;;;5045164;28;20224;-75
2021/09/01 03:20:07;;;;;;;3.45;2.65;;;18.40;99.90;;;;;;5037489;28;20220;-75
2021/09/01 03:22:34;;;;;;;3.30;2.45;;;18.30;99.90;;;;;;5051340;28;20223;-75
2021/09/01 03:25:01;;;;;;;3.13;2.92;;;18.30;99.90;;;;;;5038764;28;20258;-75
2021/09/01 03:27:29;;;;;;;3.33;2.50;;;18.30;99.90;;;;;;5045265;28;20222;-75
2021/09/01 03:29:56;;;;;;;4.32;3.05;;;18.30;99.90;;;;;;5049478;28;20207;-76
2021/09/01 03:32:22;;;;;;;5.55;3.17;;;18.30;99.90;;;;;;5041806;28;20200;-75
2021/09/01 03:34:49;;;;;;;4.13;3.28;;;18.30;99.90;;;;;;5034579;28;20246;-75
2021/09/01 03:37:16;;;;;;;5.38;3.03;;;18.30;99.90;;;;;;5036388;28;20588;-76
2021/09/01 03:39:42;;;;;;;3.33;3.03;;;18.30;99.90;;;;;;5050819;28;20191;-76
2021/09/01 03:42:09;;;;;;;3.95;3.28;;;18.30;99.90;;;;;;5052898;28;20226;-75
2021/09/01 03:44:37;;;;;;;3.65;3.17;;;18.30;99.90;;;;;;5050486;28;20196;-76
2021/09/01 03:47:04;;;;;;;6.03;3.67;;;18.30;99.90;;;;;;5039638;28;20573;-76
2021/09/01 03:49:31;;;;;;;3.67;3.38;;;18.20;99.90;;;;;;5050002;28;20188;-76
2021/09/01 03:51:57;;;;;;;4.65;3.00;;;18.30;99.90;;;;;;5042592;28;20676;-76
2021/09/01 03:54:24;;;;;;;3.92;3.20;;;18.30;99.90;;;;;;5041575;28;20261;-76
2021/09/01 03:56:51;;;;;;;3.80;3.40;;;18.20;99.90;;;;;;5050924;28;20254;-76
2021/09/01 03:59:17;;;;;;;3.70;3.30;;;18.30;99.90;;;;;;5041890;28;20200;-76
2021/09/01 04:01:46;;;;;;;4.10;3.45;;;18.20;99.90;;;;;;5041951;28;20274;-76
2021/09/01 04:04:12;;;;;;;4.68;3.03;;;18.20;99.90;;;;;;5053171;28;20187;-76
2021/09/01 04:06:39;;;;;;;3.75;2.28;;;18.20;99.90;;;;;;5041227;28;20208;-76
2021/09/01 04:09:06;;;;;;;2.88;2.35;;;18.20;99.90;;;;;;5036422;28;20203;-76
2021/09/01 04:11:32;;;;;;;3.63;2.75;;;18.20;99.90;;;;;;5046779;28;20206;-75
2021/09/01 04:13:59;;;;;;;3.75;3.45;;;18.20;99.90;;;;;;5052602;28;20211;-77
2021/09/01 04:16:26;;;;;;;4.32;2.75;;;18.20;99.90;;;;;;5044173;28;20611;-77
2021/09/01 04:18:54;;;;;;;2.70;2.50;;;18.20;99.90;;;;;;5042142;28;20199;-77
2021/09/01 04:21:20;;;;;;;3.50;2.50;;;18.20;99.90;;;;;;5040872;28;20220;-77
2021/09/01 04:23:47;;;;;;;2.83;2.25;;;18.20;99.90;;;;;;5044996;28;20434;-76
2021/09/01 04:26:14;;;;;;;4.13;3.72;;;18.20;99.90;;;;;;5033602;28;20246;-76
2021/09/01 04:28:41;;;;;;;5.22;3.83;;;18.20;99.90;;;;;;5053481;28;20203;-75
2021/09/01 04:31:07;;;;;;;6.05;3.58;;;18.20;99.90;;;;;;5049759;28;20230;-76
2021/09/01 04:33:34;;;;;;;4.55;3.13;;;18.20;99.90;;;;;;5039177;28;20211;-77
2021/09/01 04:36:02;;;;;;;3.65;2.83;;;18.10;99.90;;;;;;5043049;28;20644;-76
2021/09/01 04:38:29;;;;;;;3.53;3.22;;;18.10;99.90;;;;;;5043686;28;20654;-77
2021/09/01 04:40:56;;;;;;;3.25;2.95;;;18.20;99.90;;;;;;5033304;28;20192;-76
2021/09/01 04:43:22;;;;;;;4.93;2.70;;;18.20;99.90;;;;;;5040810;28;20191;-77
2021/09/01 04:45:49;;;;;;;4.35;3.30;;;18.10;99.90;;;;;;5052935;28;20200;-76
2021/09/01 04:48:16;;;;;;;3.55;3.22;;;18.10;99.90;;;;;;5042628;28;20244;-76
2021/09/01 04:50:42;;;;;;;3.90;3.55;;;18.10;99.90;;;;;;5043092;28;20196;-77
2021/09/01 04:53:10;;;;;;;4.35;3.38;;;18.10;99.90;;;;;;5049506;28;20614;-77
2021/09/01 04:55:37;;;;;;;2.90;2.70;;;18.10;99.90;;;;;;5049708;28;20196;-76
2021/09/01 04:58:04;;;;;;;5.15;3.13;;;18.10;99.90;;;;;;5052504;28;20199;-76
2021/09/01 05:00:31;;;;;;;4.00;2.90;;;18.10;99.90;;;;;;5050928;28;20599;-76
2021/09/01 05:02:57;;;;;;;3.85;3.10;;;18.10;99.90;;;;;;5038172;28;20289;-76
2021/09/01 05:05:24;;;;;;;4.72;3.22;;;18.10;99.90;;;;;;5037393;28;20204;-75
2021/09/01 05:07:51;;;;;;;3.00;2.65;;;18.10;99.90;;;;;;5043959;28;20603;-75
2021/09/01 05:10:19;;;;;;;4.88;2.95;;;18.10;99.90;;;;;;5050327;28;20607;-75
2021/09/01 05:12:51;;;;;;;4.60;3.28;;;18.10;99.90;;;;;;5032393;28;20258;-75
2021/09/01 05:15:20;;;;;;;3.55;2.85;;;18.20;99.90;;;;;;5046689;28;20649;-75
2021/09/01 05:17:47;;;;;;;3.22;2.58;;;18.10;99.90;;;;;;5047168;28;20192;-75
2021/09/01 05:20:16;;;;;;;3.67;2.55;;;18.00;99.90;;;;;;5040759;28;20207;-75
2021/09/01 05:22:47;;;;;;;3.63;2.95;;;18.00;99.90;;;;;;5038196;28;20216;-76
2021/09/01 05:25:16;;;;;;;3.63;3.00;;;18.00;99.90;;;;;;5036589;28;20250;-76
2021/09/01 05:27:45;;;;;;;4.10;2.97;;;18.00;99.90;;;;;;5043019;28;20656;-76
2021/09/01 05:30:14;;;;;;;3.78;3.42;;;18.00;99.90;;;;;;5038232;28;20192;-76
2021/09/01 05:32:44;;;;;;;4.15;3.22;;;18.10;99.90;;;;;;5047454;28;20199;-76
2021/09/01 05:35:13;;;;;;;3.00;2.80;;;18.00;99.90;;;;;;5050803;28;20747;-76
2021/09/01 05:37:40;;;;;;;2.65;2.40;;;18.00;99.90;;;;;;5039461;28;20199;-76
2021/09/01 05:40:09;;;;;;;4.13;2.63;;;18.00;99.90;;;;;;5036546;28;20249;-76
2021/09/01 05:42:36;;;;;;;3.60;2.88;;;18.00;99.90;;;;;;5033137;28;20269;-76
2021/09/01 05:45:06;;;;;;;4.35;3.10;;;18.00;99.90;;;;;;5037513;28;20258;-76
2021/09/01 05:47:33;;;;;;;3.35;2.83;;;18.00;99.90;;;;;;5049889;28;20199;-76
2021/09/01 05:50:00;;;;;;;4.70;2.85;;;18.00;99.90;;;;;;5041648;28;20203;-74
2021/09/01 05:52:28;;;;;;;5.95;3.22;;;18.00;99.90;;;;;;5045502;28;20248;-75
2021/09/01 05:54:58;;;;;;;2.85;2.55;;;18.00;99.90;;;;;;5044694;28;20683;-74
2021/09/01 05:57:33;;;;;;;4.80;2.80;;;18.00;99.90;;;;;;5043060;28;20665;-77
2021/09/01 06:00:06;;;;;;;3.63;3.30;;;18.00;99.90;;;;;;5033307;28;20283;-75
2021/09/01 06:02:44;;;;;;;4.20;3.13;;;18.00;99.90;;;;;;5030560;28;20254;-75
2021/09/01 06:05:11;;;;;;;3.20;2.90;;;18.00;99.90;;;;;;5032087;28;20265;-75
2021/09/01 06:07:44;;;;;;;3.47;3.17;;;18.00;99.90;;;;;;5041357;28;20229;-75
2021/09/01 06:10:15;;;;;;;3.88;3.10;;;18.00;99.90;;;;;;5034117;28;20282;-76
2021/09/01 06:12:46;;;;;;;3.25;2.95;;;18.00;99.90;;;;;;5035047;28;20253;-75
2021/09/01 06:15:14;;;;;;;4.18;3.03;;;18.00;99.90;;;;;;5039423;28;20192;-75
2021/09/01 06:17:41;;;;;;;3.88;2.97;;;18.00;99.90;;;;;;5034753;28;20201;-76
2021/09/01 06:20:09;;;;;;;3.30;2.83;;;18.00;99.90;;;;;;5043033;28;20211;-75
2021/09/01 06:22:35;;;;;;;3.78;3.05;;;18.00;99.90;;;;;;5037925;28;20219;-76
2021/09/01 06:25:03;;;;;;;3.60;2.70;;;18.00;99.90;;;;;;5034046;28;20212;-75
2021/09/01 06:27:29;;;;;;;2.85;2.65;;;18.00;99.90;;;;;;5043961;28;20191;-75
2021/09/01 06:29:56;;;;;;;4.00;2.90;;;18.00;99.90;;;;;;5034029;28;20204;-77
2021/09/01 06:32:24;;;;;;;4.85;2.80;;;18.00;99.90;;;;;;5047795;28;20246;-75
2021/09/01 06:34:51;;;;;;;4.07;3.08;;;18.00;99.90;;;;;;5039344;28;20245;-76
2021/09/01 06:37:18;;;;;;;3.22;2.92;;;18.00;99.90;;;;;;5053969;28;20256;-73
2021/09/01 06:39:44;;;;;;;3.40;3.10;;;18.10;99.90;;;;;;5042972;28;20196;-74
2021/09/01 06:42:11;;;;;;;4.07;2.85;;;18.00;99.90;;;;;;5031328;28;20569;-75
2021/09/01 06:44:38;;;;;;;2.90;2.60;;;18.00;99.90;;;;;;5047430;28;20329;-74
2021/09/01 06:47:05;;;;;;;3.92;3.15;;;18.00;99.90;;;;;;5043494;28;20258;-75
2021/09/01 06:49:33;;;;;;;3.75;2.70;;;18.00;99.90;;;;;;5030106;28;20204;-74
2021/09/01 06:51:59;;;;;;;3.80;3.10;;;18.00;99.90;;;;;;5040683;28;20203;-74
2021/09/01 06:54:26;;;;;;;3.58;2.55;;;18.00;99.90;;;;;;5045549;28;20203;-74
2021/09/01 06:56:53;;;;;;;9.45;2.65;;;17.90;99.90;;;;;;5049024;28;20225;-75
2021/09/01 06:59:19;;;;;;;3.28;2.97;;;18.00;99.90;;;;;;5036896;28;20262;-74
2021/09/01 07:01:46;;;;;;;3.67;2.40;;;17.90;99.90;;;;;;5035522;28;20430;-75
2021/09/01 07:04:13;;;;;;;3.03;2.58;;;18.00;99.90;;;;;;5037283;28;20204;-74
2021/09/01 07:06:41;;;;;;;2.83;2.60;;;18.00;99.90;;;;;;5050462;28;20191;-75
2021/09/01 07:09:08;;;;;;;3.33;3.03;;;18.00;99.90;;;;;;5044692;28;20940;-75
2021/09/01 07:11:34;;;;;;;3.40;3.10;;;17.90;99.90;;;;;;5045574;28;20192;-74
2021/09/01 07:14:01;;;;;;;3.97;3.22;;;18.00;99.90;;;;;;5040662;28;20196;-74
2021/09/01 07:16:28;;;;;;;3.03;2.83;;;18.00;99.90;;;;;;5052292;28;20192;-74
2021/09/01 07:18:54;;;;;;;4.72;3.45;;;17.90;99.90;;;;;;5036419;28;20200;-74
2021/09/01 07:21:21;;;;;;;4.47;3.58;;;18.00;99.90;;;;;;5045605;28;20226;-75
2021/09/01 07:23:49;;;;;;;3.00;2.60;;;18.00;99.90;;;;;;5041517;28;20224;-75
2021/09/01 07:26:16;;;;;;;4.13;2.92;;;18.00;99.90;;;;;;5046146;28;20257;-74
2021/09/01 07:28:42;;;;;;;4.38;3.20;;;18.00;99.90;;;;;;5052650;28;20191;-74
2021/09/01 07:31:10;;;;;;;3.05;2.65;;;18.00;99.90;;;;;;5048916;28;20238;-74
2021/09/01 07:33:37;;;;;;;4.43;2.95;;;18.00;99.90;;;;;;5040401;28;20196;-75
2021/09/01 07:36:04;;;;;;;3.45;2.35;;;18.00;99.90;;;;;;5049114;28;20196;-74
2021/09/01 07:38:31;;;;;;;2.95;2.60;;;18.00;99.90;;;;;;5034746;28;20245;-74
2021/09/01 07:40:59;;;;;;;4.03;2.85;;;18.00;99.90;;;;;;5036118;28;20192;-74
2021/09/01 07:43:26;;;;;;;7.45;4.65;;;18.00;99.90;;;;;;5041197;28;20223;-75
2021/09/01 07:45:54;;;;;;;8.35;4.95;;;17.90;99.90;;;;;;5053133;28;20195;-74
2021/09/01 07:48:20;;;;;;;8.30;4.30;;;18.00;99.90;;;;;;5053092;28;20245;-73
2021/09/01 07:50:47;;;;;;;9.65;4.07;;;18.00;99.90;;;;;;5047597;28;20207;-73
2021/09/01 07:53:14;;;;;;;6.93;4.97;;;18.00;99.90;;;;;;5034385;28;20657;-73
2021/09/01 07:55:40;;;;;;;8.65;3.60;;;18.00;99.90;;;;;;5042395;28;20203;-74
2021/09/01 07:58:08;;;;;;;8.80;3.50;;;18.00;99.90;;;;;;5054387;28;20254;-74
2021/09/01 08:00:35;;;;;;;10.35;3.88;;;18.10;99.90;;;;;;5043697;28;20204;-73
2021/09/01 08:03:02;;;;;;;7.85;4.15;;;18.10;99.90;;;;;;5047396;28;20250;-73
2021/09/01 08:05:29;;;;;;;6.32;3.45;;;18.10;99.90;;;;;;5041454;28;20199;-74
2021/09/01 08:07:55;;;;;;;7.60;4.10;;;18.10;99.90;;;;;;5036027;28;20200;-74
2021/09/01 08:10:22;;;;;;;5.32;4.22;;;18.10;99.90;;;;;;5051398;28;20230;-73
2021/09/01 08:12:48;;;;;;;10.35;3.63;;;18.00;99.90;;;;;;5044740;28;20250;-74
2021/09/01 08:15:17;;;;;;;6.10;4.10;;;18.10;99.90;;;;;;5052009;28;20192;-74
2021/09/01 08:17:43;;;;;;;7.40;4.18;;;18.00;99.90;;;;;;5035723;28;20203;-74
2021/09/01 08:20:12;;;;;;;6.97;3.38;;;18.10;99.90;;;;;;5036068;28;20220;-74
2021/09/01 08:22:38;;;;;;;8.30;3.83;;;18.10;99.90;;;;;;5041928;28;20634;-74
2021/09/01 08:25:06;;;;;;;7.57;4.43;;;18.10;99.90;;;;;;5039054;28;20245;-74
2021/09/01 08:27:32;;;;;;;5.10;3.60;;;18.10;99.90;;;;;;5037887;28;20669;-74
2021/09/01 08:29:59;;;;;;;5.93;3.50;;;18.00;99.90;;;;;;5033695;28;20199;-73
2021/09/01 08:32:27;;;;;;;6.30;4.50;;;18.10;99.90;;;;;;5036920;28;20200;-74
2021/09/01 08:34:54;;;;;;;9.00;3.92;;;18.10;99.90;;;;;;5037225;28;20199;-73
2021/09/01 08:37:21;;;;;;;8.55;3.50;;;18.10;99.90;;;;;;5033418;28;20604;-74
2021/09/01 08:39:47;;;;;;;4.65;3.28;;;18.10;99.90;;;;;;5034621;28;20197;-73
2021/09/01 08:42:17;;;;;;;7.50;4.35;;;18.10;99.90;;;;;;5034685;28;20204;-74
2021/09/01 08:44:43;;;;;;;12.32;5.95;;;18.00;99.90;;;;;;5049992;28;20193;-73
2021/09/01 08:47:11;;;;;;;8.52;4.72;;;18.00;99.90;;;;;;5033550;28;20200;-73
2021/09/01 08:49:40;;;;;;;5.55;3.75;;;18.00;99.90;;;;;;5052446;28;20200;-74
2021/09/01 08:52:06;;;;;;;8.73;5.13;;;18.10;99.90;;;;;;5041685;28;20222;-74
2021/09/01 08:54:33;;;;;;;5.70;4.00;;;18.10;99.90;;;;;;5036888;28;20188;-73
2021/09/01 08:57:00;;;;;;;5.40;3.28;;;18.20;99.90;;;;;;5039337;28;20204;-74
2021/09/01 08:59:27;;;;;;;9.38;4.97;;;18.10;99.90;;;;;;5039802;28;20187;-73
2021/09/01 09:01:55;;;;;;;7.80;4.90;;;18.10;99.90;;;;;;5044892;28;20207;-73
2021/09/01 09:04:24;;;;;;;8.65;4.90;;;18.10;99.90;;;;;;5041858;28;20219;-73
2021/09/01 09:06:53;;;;;;;6.97;4.38;;;18.10;99.90;;;;;;5032833;28;20199;-75
2021/09/01 09:09:22;;;;;;;6.35;4.00;;;18.20;99.90;;;;;;5036172;28;20293;-75
2021/09/01 09:11:49;;;;;;;6.93;4.00;;;18.20;99.90;;;;;;5036643;28;20248;-75
2021/09/01 09:14:24;;;;;;;7.35;4.13;;;18.20;99.90;;;;;;5036924;28;20250;-74
2021/09/01 09:17:08;;;;;;;7.75;3.58;;;18.20;99.90;;;;;;5038476;28;20222;-75
2021/09/01 09:19:43;;;;;;;5.47;4.72;;;18.20;99.90;;;;;;5035135;28;20230;-75
2021/09/01 09:22:12;;;;;;;7.28;3.97;;;18.30;99.90;;;;;;5033527;28;20230;-74
2021/09/01 09:24:39;;;;;;;5.15;3.03;;;18.20;99.90;;;;;;5042764;28;20270;-77
2021/09/01 09:27:06;;;;;;;4.70;3.42;;;18.30;99.90;;;;;;5049069;28;20283;-74
2021/09/01 09:29:33;;;;;;;4.47;3.85;;;18.20;99.90;;;;;;5037581;28;20196;-74
2021/09/01 09:32:03;;;;;;;5.45;2.80;;;18.20;99.90;;;;;;5046225;28;20192;-73
2021/09/01 09:34:36;;;;;;;10.32;4.55;;;18.20;99.90;;;;;;5038099;28;20200;-75
2021/09/01 09:37:05;;;;;;;6.53;4.53;;;18.30;99.90;;;;;;5035490;28;20653;-74
2021/09/01 09:39:45;;;;;;;11.95;3.67;;;18.20;99.90;;;;;;5047277;28;20211;-73
2021/09/01 09:42:14;;;;;;;4.47;3.80;;;18.20;99.90;;;;;;5031378;28;20199;-73
2021/09/01 09:44:41;;;;;;;4.78;3.25;;;18.30;99.90;;;;;;5036001;28;20223;-72
2021/09/01 09:47:07;;;;;;;3.65;3.10;;;18.20;99.90;;;;;;5037789;28;20604;-74
2021/09/01 09:49:35;;;;;;;6.90;4.05;;;18.30;99.90;;;;;;5032990;28;20234;-73
2021/09/01 09:52:13;;;;;;;4.32;3.05;;;18.30;99.90;;;;;;5049010;28;20218;-73
2021/09/01 09:54:41;;;;;;;4.53;4.10;;;18.30;99.90;;;;;;5037358;28;20254;-72
2021/09/01 09:57:10;;;;;;;3.85;3.55;;;18.30;99.90;;;;;;5039600;28;20723;-73
2021/09/01 09:59:37;;;;;;;6.20;4.57;;;18.10;99.90;;;;;;5049960;28;20199;-72
2021/09/01 10:02:04;;;;;;;9.75;4.40;;;18.30;99.90;;;;;;5037506;28;20200;-73
2021/09/01 10:04:31;;;;;;;3.38;2.95;;;18.30;99.90;;;;;;5040244;28;20688;-73
2021/09/01 10:06:59;;;;;;;5.03;3.65;;;18.30;99.90;;;;;;5050079;28;20291;-74
2021/09/01 10:09:25;;;;;;;4.40;3.72;;;18.40;99.90;;;;;;5044524;28;20200;-74
2021/09/01 10:11:54;;;;;;;4.65;3.65;;;18.30;99.90;;;;;;5033601;28;20204;-73
2021/09/01 10:14:24;;;;;;;5.82;3.80;;;18.30;99.90;;;;;;5043753;28;20207;-74
2021/09/01 10:16:58;;;;;;;5.05;3.75;;;18.40;99.90;;;;;;5051627;28;20207;-74
2021/09/01 10:19:27;;;;;;;4.10;3.33;;;18.40;99.90;;;;;;5038249;28;20233;-74
2021/09/01 10:21:57;;;;;;;11.75;4.18;;;18.50;99.90;;;;;;5051402;28;20660;-74
2021/09/01 10:24:28;;;;;;;3.75;3.20;;;18.40;99.90;;;;;;5037695;28;20212;-73
2021/09/01 10:27:02;;;;;;;4.35;3.45;;;18.60;99.90;;;;;;5036976;28;20199;-73
2021/09/01 10:29:41;;;;;;;5.13;3.58;;;18.50;99.90;;;;;;5050536;28;20199;-76
2021/09/01 10:32:19;;;;;;;5.50;3.72;;;18.60;99.90;;;;;;5042943;28;20194;-75
2021/09/01 10:34:46;;;;;;;4.80;3.90;;;18.50;99.90;;;;;;5035913;28;20257;-74
2021/09/01 10:37:37;;;;;;;4.95;3.58;;;18.60;99.90;;;;;;5045387;28;20249;-74
2021/09/01 10:40:04;;;;;;;5.78;3.30;;;18.50;99.90;;;;;;5031753;28;20193;-74
2021/09/01 10:42:41;;;;;;;5.40;4.38;;;18.60;99.90;;;;;;5034945;28;20272;-73
2021/09/01 10:45:13;;;;;;;8.77;3.63;;;18.60;99.90;;;;;;5045434;28;20592;-74
2021/09/01 10:48:09;;;;;;;7.97;3.88;;;18.60;99.90;;;;;;5046753;28;20249;-75
2021/09/01 10:50:39;;;;;;;6.93;3.65;;;18.60;99.90;;;;;;5044827;28;20195;-75
2021/09/01 10:53:12;;;;;;;7.00;4.82;;;18.60;99.90;;;;;;5043255;28;20196;-74
2021/09/01 10:55:54;;;;;;;8.73;5.63;;;18.60;99.90;;;;;;5036608;28;20199;-74
2021/09/01 10:58:24;;;;;;;7.88;3.92;;;18.60;99.90;;;;;;5053487;28;20257;-75
2021/09/01 11:00:54;;;;;;;4.63;3.47;;;18.60;99.90;;;;;;5054803;28;20579;-73
2021/09/01 11:03:32;;;;;;;3.75;2.90;;;18.70;99.90;;;;;;5046105;28;20858;-75
2021/09/01 11:06:26;;;;;;;6.75;3.95;;;18.60;99.90;;;;;;5055382;28;20621;-74
2021/09/01 11:09:02;;;;;;;3.85;3.30;;;18.60;99.90;;;;;;5039263;28;20204;-75
2021/09/01 11:11:51;;;;;;;5.55;3.58;;;18.60;99.90;;;;;;5047857;28;20530;-74
2021/09/01 11:14:37;;;;;;;6.00;4.05;;;18.60;99.90;;;;;;5053211;28;20290;-74
2021/09/01 11:17:07;;;;;;;4.07;3.67;;;18.70;99.90;;;;;;5052804;28;20257;-73
2021/09/01 11:19:34;;;;;;;5.03;3.88;;;18.70;99.90;;;;;;5035715;28;20317;-74
2021/09/01 11:22:06;;;;;;;6.35;4.05;;;18.70;99.90;;;;;;5035503;28;20242;-74
2021/09/01 11:24:46;;;;;;;5.68;3.22;;;18.70;99.90;;;;;;5034582;28;20228;-74
2021/09/01 11:27:14;;;;;;;5.63;3.78;;;18.70;99.90;;;;;;5035077;28;20234;-74
2021/09/01 11:29:43;;;;;;;5.85;3.45;;;18.70;99.90;;;;;;5048970;28;20187;-74
2021/09/01 11:32:14;;;;;;;4.38;3.40;;;18.80;99.90;;;;;;5045695;28;20200;-74
2021/09/01 11:34:41;;;;;;;4.00;3.25;;;18.80;99.90;;;;;;5054264;28;20206;-74
2021/09/01 11:37:07;;;;;;;5.82;3.45;;;18.80;99.90;;;;;;5053575;28;20206;-75
2021/09/01 11:39:57;;;;;;;5.03;4.00;;;18.80;99.90;;;;;;5052554;28;20199;-84
2021/09/01 11:42:24;;;;;;;3.50;3.20;;;18.80;99.90;;;;;;5042356;28;20196;-75
2021/09/01 11:44:57;;;;;;;4.35;3.42;;;18.80;99.90;;;;;;5052407;28;20298;-74
2021/09/01 11:47:25;;;;;;;4.55;3.25;;;18.90;99.90;;;;;;5044325;28;20196;-74
2021/09/01 11:49:52;;;;;;;4.82;3.47;;;18.90;99.90;;;;;;5050010;28;20198;-75
2021/09/01 11:52:26;;;;;;;5.03;3.03;;;18.90;99.90;;;;;;5043821;28;20204;-74
2021/09/01 11:54:53;;;;;;;3.63;2.50;;;18.90;99.90;;;;;;5045440;28;20618;-76
2021/09/01 11:57:24;;;;;;;5.47;3.95;;;18.90;99.90;;;;;;5035561;28;20192;-75
2021/09/01 11:59:51;;;;;;;3.92;3.53;;;18.90;99.90;;;;;;5033216;28;20201;-75
2021/09/01 12:02:23;;;;;;;4.85;3.65;;;19.00;99.90;;;;;;5044356;28;20195;-75
2021/09/01 12:04:50;;;;;;;3.92;3.47;;;19.00;99.90;;;;;;5051606;28;20260;-74
2021/09/01 12:07:25;;;;;;;6.65;4.20;;;19.00;99.90;;;;;;5054354;28;20249;-76
2021/09/01 12:09:54;;;;;;;3.33;2.10;;;19.00;99.90;;;;;;5045744;28;20283;-76
2021/09/01 12:12:21;;;;;;;4.25;3.17;;;19.10;99.90;;;;;;5060425;28;20227;-77
2021/09/01 12:14:48;;;;;;;3.47;3.17;;;19.10;99.90;;;;;;5049865;28;20196;-75
2021/09/01 12:17:17;;;;;;;6.38;2.90;;;19.20;99.90;;;;;;5052605;28;20203;-75
2021/09/01 12:19:50;;;;;;;3.90;3.10;;;19.10;99.90;;;;;;5050384;28;20222;-76
2021/09/01 12:22:33;;;;;;;6.70;2.95;;;19.20;99.90;;;;;;5037744;28;20602;-75
2021/09/01 12:25:02;;;;;;;3.67;3.08;;;19.10;99.90;;;;;;5036241;28;20230;-76
2021/09/01 12:27:29;;;;;;;4.10;3.70;;;19.20;99.90;;;;;;5053257;28;20675;-78
2021/09/01 12:29:56;;;;;;;3.75;2.83;;;19.20;99.90;;;;;;5047340;28;20195;-75
2021/09/01 12:32:23;;;;;;;4.10;2.88;;;19.20;99.90;;;;;;5042561;28;20537;-75
2021/09/01 12:34:55;;;;;;;5.60;3.25;;;19.30;99.90;;;;;;5033776;28;20207;-75
2021/09/01 12:37:24;;;;;;;3.55;3.25;;;19.20;99.90;;;;;;5034079;28;20542;-74
2021/09/01 12:39:53;;;;;;;3.58;3.28;;;19.30;99.90;;;;;;5043448;28;20207;-75
2021/09/01 12:42:25;;;;;;;3.03;2.75;;;19.30;99.90;;;;;;5041755;28;20196;-74
2021/09/01 12:44:54;;;;;;;3.00;2.80;;;19.30;99.90;;;;;;5048816;28;20219;-73
2021/09/01 12:47:22;;;;;;;4.25;3.00;;;19.40;99.90;;;;;;5050290;28;20199;-73
2021/09/01 12:49:52;;;;;;;6.18;3.38;;;19.40;99.90;;;;;;5051558;28;20265;-74
2021/09/01 12:52:22;;;;;;;3.50;3.20;;;19.40;99.90;;;;;;5050934;28;20592;-74